createdAt,value
2024-05-09T00:00:51.653Z,60.36
2024-05-09T00:03:41.383Z,60.74
2024-05-09T00:06:09.991Z,60.62
2024-05-09T00:08:38.237Z,60.93
2024-05-09T00:11:08.625Z,61.27
2024-05-09T00:13:36.641Z,61.34
2024-05-09T00:16:06.855Z,61.58
2024-05-09T00:18:34.776Z,61.60
2024-05-09T00:21:07.033Z,62.07
2024-05-09T00:23:35.370Z,62.20
2024-05-09T00:26:03.454Z,61.98
2024-05-09T00:28:33.992Z,62.21
2024-05-09T00:31:02.821Z,62.23
2024-05-09T00:33:30.911Z,62.19
2024-05-09T00:35:58.928Z,62.50
2024-05-09T00:38:26.931Z,62.38
2024-05-09T00:40:54.927Z,62.58
2024-05-09T00:43:22.844Z,62.83
2024-05-09T00:45:54.971Z,62.87
2024-05-09T00:48:23.682Z,63.20
2024-05-09T00:50:57.711Z,63.30
2024-05-09T00:53:28.236Z,63.49
2024-05-09T00:55:57.542Z,63.58
2024-05-09T00:58:31.535Z,63.59
2024-05-09T01:01:01.218Z,63.61
2024-05-09T01:03:29.323Z,63.78
2024-05-09T01:05:59.697Z,63.78
2024-05-09T01:08:30.260Z,63.69
2024-05-09T01:10:58.401Z,63.90
2024-05-09T01:13:26.346Z,63.84
2024-05-09T01:15:55.493Z,63.85
2024-05-09T01:18:23.595Z,64.01
2024-05-09T01:20:53.829Z,64.28
2024-05-09T01:23:21.808Z,64.30
2024-05-09T01:25:52.218Z,64.61
2024-05-09T01:28:20.254Z,64.41
2024-05-09T01:30:48.117Z,64.73
2024-05-09T01:33:23.575Z,64.97
2024-05-09T01:35:53.848Z,65.14
2024-05-09T01:38:24.803Z,65.35
2024-05-09T01:40:57.629Z,65.33
2024-05-09T01:43:27.671Z,65.06
2024-05-09T01:46:00.148Z,65.13
2024-05-09T01:48:28.360Z,64.91
2024-05-09T01:50:56.878Z,64.91
2024-05-09T01:53:27.201Z,65.40
2024-05-09T01:55:55.115Z,65.09
2024-05-09T01:58:23.026Z,65.12
2024-05-09T02:00:53.519Z,65.28
2024-05-09T02:03:21.706Z,65.15
2024-05-09T02:05:54.259Z,65.43
2024-05-09T02:08:22.633Z,65.22
2024-05-09T02:10:53.270Z,65.51
2024-05-09T02:13:25.535Z,65.51
2024-05-09T02:15:53.505Z,65.68
2024-05-09T02:18:21.572Z,65.46
2024-05-09T02:20:51.891Z,65.72
2024-05-09T02:23:20.002Z,65.72
2024-05-09T02:25:52.742Z,65.92
2024-05-09T02:28:21.278Z,65.89
2024-05-09T02:30:49.196Z,65.96
2024-05-09T02:33:17.275Z,66.25
2024-05-09T02:35:45.318Z,65.93
2024-05-09T02:38:13.706Z,66.11
2024-05-09T02:40:41.710Z,66.27
2024-05-09T02:43:12.654Z,66.21
2024-05-09T02:45:43.131Z,66.53
2024-05-09T02:48:12.772Z,66.21
2024-05-09T02:50:42.104Z,66.13
2024-05-09T02:53:15.160Z,66.42
2024-05-09T02:55:43.425Z,66.59
2024-05-09T02:58:12.230Z,66.44
2024-05-09T03:00:44.601Z,66.55
2024-05-09T03:03:14.806Z,66.53
2024-05-09T03:05:47.967Z,66.56
2024-05-09T03:08:18.334Z,66.39
2024-05-09T03:10:49.085Z,66.49
2024-05-09T03:13:17.029Z,66.69
2024-05-09T03:15:45.712Z,66.75
2024-05-09T03:18:14.075Z,66.67
2024-05-09T03:20:45.022Z,66.63
2024-05-09T03:23:17.522Z,66.69
2024-05-09T03:25:47.863Z,66.78
2024-05-09T03:28:15.791Z,66.79
2024-05-09T03:30:43.689Z,66.99
2024-05-09T03:33:16.779Z,66.98
2024-05-09T03:35:46.209Z,67.00
2024-05-09T03:38:14.369Z,67.01
2024-05-09T03:40:46.946Z,67.15
2024-05-09T03:43:15.388Z,67.17
2024-05-09T03:45:48.627Z,67.07
2024-05-09T03:48:19.257Z,67.07
2024-05-09T03:50:50.566Z,66.95
2024-05-09T03:53:18.682Z,67.04
2024-05-09T03:55:48.206Z,66.85
2024-05-09T03:58:16.136Z,67.02
2024-05-09T04:00:44.412Z,66.75
2024-05-09T04:03:13.396Z,66.75
2024-05-09T04:05:43.760Z,66.84
2024-05-09T04:08:15.150Z,66.59
2024-05-09T04:10:43.545Z,66.67
2024-05-09T04:13:13.604Z,66.44
2024-05-09T04:15:41.620Z,66.32
2024-05-09T04:18:12.840Z,66.16
2024-05-09T04:20:41.475Z,65.99
2024-05-09T04:23:14.568Z,65.60
2024-05-09T04:25:47.588Z,65.37
2024-05-09T04:28:15.610Z,64.82
2024-05-09T04:30:43.689Z,64.50
2024-05-09T04:33:13.711Z,64.08
2024-05-09T04:35:43.719Z,63.78
2024-05-09T04:38:12.776Z,63.56
2024-05-09T04:40:43.304Z,63.63
2024-05-09T04:43:18.514Z,63.04
2024-05-09T04:45:46.461Z,62.51
2024-05-09T04:48:14.582Z,62.69
2024-05-09T04:50:42.671Z,62.15
2024-05-09T04:53:18.567Z,61.54
2024-05-09T04:55:52.700Z,61.78
2024-05-09T04:58:20.692Z,61.84
2024-05-09T05:00:48.727Z,61.90
2024-05-09T05:03:19.206Z,61.40
2024-05-09T05:05:47.669Z,61.20
2024-05-09T05:08:20.408Z,60.98
2024-05-09T05:10:49.313Z,60.80
2024-05-09T05:13:21.838Z,61.32
2024-05-09T05:15:53.501Z,60.94
2024-05-09T05:18:24.804Z,60.29
2024-05-09T05:20:53.502Z,60.08
2024-05-09T05:23:24.771Z,60.07
2024-05-09T05:25:55.383Z,59.00
2024-05-09T05:28:23.803Z,58.73
2024-05-09T05:30:51.882Z,57.72
2024-05-09T05:33:22.315Z,57.21
2024-05-09T05:35:51.038Z,56.71
2024-05-09T05:38:20.044Z,56.38
2024-05-09T05:40:51.579Z,55.78
2024-05-09T05:43:20.400Z,55.91
2024-05-09T05:45:48.312Z,54.77
2024-05-09T05:48:19.083Z,53.78
2024-05-09T05:50:49.808Z,54.32
2024-05-09T05:53:20.109Z,53.59
2024-05-09T05:55:48.251Z,53.23
2024-05-09T05:58:16.567Z,52.98
2024-05-09T06:00:53.092Z,53.21
2024-05-09T06:03:30.435Z,52.40
2024-05-09T06:06:02.982Z,51.97
2024-05-09T06:08:33.581Z,51.50
2024-05-09T06:11:04.273Z,51.72
2024-05-09T06:13:34.472Z,51.95
2024-05-09T06:16:04.894Z,51.72
2024-05-09T06:18:33.327Z,50.84
2024-05-09T06:21:01.469Z,49.11
2024-05-09T06:23:31.858Z,49.65
2024-05-09T06:26:02.135Z,47.98
2024-05-09T06:28:32.338Z,47.14
2024-05-09T06:31:01.668Z,47.32
2024-05-09T06:33:31.957Z,48.11
2024-05-09T06:36:00.099Z,48.98
2024-05-09T06:38:28.809Z,48.62
2024-05-09T06:40:57.165Z,47.10
2024-05-09T06:43:25.133Z,47.57
2024-05-09T06:45:56.093Z,46.18
2024-05-09T06:48:24.229Z,46.52
2024-05-09T06:50:55.066Z,47.30
2024-05-09T06:53:26.458Z,47.12
2024-05-09T06:55:54.590Z,46.52
2024-05-09T06:58:22.582Z,46.90
2024-05-09T07:00:50.551Z,46.78
2024-05-09T07:03:19.503Z,45.73
2024-05-09T07:05:49.430Z,45.10
2024-05-09T07:08:18.400Z,43.90
2024-05-09T07:10:47.003Z,43.85
2024-05-09T07:13:17.941Z,44.48
2024-05-09T07:15:45.991Z,44.27
2024-05-09T07:18:20.016Z,43.88
2024-05-09T07:20:49.603Z,42.90
2024-05-09T07:23:18.967Z,42.86
2024-05-09T07:25:47.286Z,43.33
2024-05-09T07:28:19.836Z,42.61
2024-05-09T07:30:48.024Z,43.33
2024-05-09T07:33:18.760Z,43.29
2024-05-09T07:35:50.151Z,42.13
2024-05-09T07:38:19.459Z,42.50
2024-05-09T07:40:50.609Z,41.90
2024-05-09T07:43:18.647Z,42.02
2024-05-09T07:45:52.525Z,41.24
2024-05-09T07:52:45.985Z,41.19
2024-05-09T07:53:49.967Z,40.37
2024-05-09T07:56:24.200Z,40.91
2024-05-09T07:58:54.092Z,40.54
2024-05-09T08:01:25.536Z,40.01
2024-05-09T08:03:54.871Z,39.77
2024-05-09T08:06:23.986Z,39.36
2024-05-09T08:08:52.277Z,38.72
2024-05-09T08:11:20.583Z,38.07
2024-05-09T08:13:48.534Z,36.78
2024-05-09T08:16:16.465Z,36.57
2024-05-09T08:18:47.614Z,37.47
2024-05-09T08:21:19.281Z,37.65
2024-05-09T08:23:48.401Z,36.90
2024-05-09T08:26:19.897Z,35.94
2024-05-09T08:28:49.000Z,34.52
2024-05-09T08:31:17.715Z,34.77
2024-05-09T08:33:50.594Z,33.91
2024-05-09T08:36:20.142Z,32.10
2024-05-09T08:38:57.131Z,32.31
2024-05-09T08:41:25.249Z,32.08
2024-05-09T08:43:56.104Z,32.60
2024-05-09T08:46:26.995Z,32.68
2024-05-09T08:48:58.831Z,32.23
2024-05-09T08:51:27.241Z,32.32
2024-05-09T08:53:55.678Z,32.54
2024-05-09T08:56:28.382Z,32.62
2024-05-09T08:59:04.406Z,33.49
2024-05-09T09:01:35.766Z,32.07
2024-05-09T09:04:05.797Z,32.75
2024-05-09T09:06:35.348Z,32.79
2024-05-09T09:09:03.909Z,32.58
2024-05-09T09:11:34.353Z,32.48
2024-05-09T09:14:02.381Z,31.57
2024-05-09T09:16:34.408Z,31.45
2024-05-09T09:19:04.538Z,31.92
2024-05-09T09:21:35.633Z,31.78
2024-05-09T09:24:03.965Z,31.19
2024-05-09T09:26:32.567Z,31.67
2024-05-09T09:29:01.857Z,31.29
2024-05-09T09:31:30.550Z,31.77
2024-05-09T09:34:07.302Z,31.46
2024-05-09T09:36:37.245Z,32.22
2024-05-09T09:39:06.717Z,32.07
2024-05-09T09:41:38.117Z,31.26
2024-05-09T09:44:09.178Z,31.94
2024-05-09T09:46:38.364Z,30.45
2024-05-09T09:49:07.401Z,30.86
2024-05-09T09:51:36.337Z,31.74
2024-05-09T09:54:06.765Z,31.88
2024-05-09T09:56:38.898Z,30.74
2024-05-09T09:59:08.381Z,30.50
2024-05-09T10:01:36.913Z,30.46
2024-05-09T10:04:05.908Z,30.75
2024-05-09T10:06:36.875Z,30.52
2024-05-09T10:09:05.251Z,30.50
2024-05-09T10:11:42.060Z,30.48
2024-05-09T10:14:25.459Z,30.18
2024-05-09T10:17:04.690Z,30.06
2024-05-09T10:19:35.312Z,29.86
2024-05-09T10:22:08.898Z,28.98
2024-05-09T10:24:47.355Z,29.36
2024-05-09T10:27:36.711Z,29.26
2024-05-09T10:30:14.660Z,29.16
2024-05-09T10:32:53.627Z,28.32
2024-05-09T10:35:22.753Z,28.36
2024-05-09T10:37:52.968Z,28.35
2024-05-09T10:40:26.480Z,27.86
2024-05-09T10:43:02.588Z,28.18
2024-05-09T10:45:32.860Z,28.12
2024-05-09T10:48:01.767Z,28.05
2024-05-09T10:50:34.221Z,29.12
2024-05-09T10:53:03.322Z,28.80
2024-05-09T10:55:32.395Z,29.23
2024-05-09T10:58:01.102Z,28.44
2024-05-09T11:00:36.000Z,27.73
2024-05-09T11:03:14.682Z,28.03
2024-05-09T11:05:45.160Z,28.33
2024-05-09T11:08:16.036Z,28.17
2024-05-09T11:10:46.659Z,28.10
2024-05-09T11:13:30.688Z,28.09
2024-05-09T11:16:04.873Z,29.01
2024-05-09T11:18:38.798Z,29.19
2024-05-09T11:21:14.003Z,28.78
2024-05-09T11:23:42.298Z,26.40
2024-05-09T11:26:11.315Z,26.81
2024-05-09T11:28:45.074Z,26.68
2024-05-09T11:31:15.476Z,25.74
2024-05-09T11:33:47.656Z,26.41
2024-05-09T11:36:19.138Z,27.16
2024-05-09T11:38:50.310Z,27.67
2024-05-09T11:41:18.994Z,27.64
2024-05-09T11:43:48.608Z,28.05
2024-05-09T11:46:16.690Z,27.59
2024-05-09T11:48:45.326Z,26.70
2024-05-09T11:51:16.496Z,25.40
2024-05-09T11:53:44.866Z,26.53
2024-05-09T11:56:15.390Z,26.89
2024-05-09T11:58:43.557Z,26.56
2024-05-09T12:01:14.383Z,26.67
2024-05-09T12:03:44.845Z,26.50
2024-05-09T12:06:12.989Z,27.14
2024-05-09T12:08:41.345Z,26.82
2024-05-09T12:11:09.851Z,27.03
2024-05-09T12:13:38.073Z,27.30
2024-05-09T12:16:06.555Z,27.18
2024-05-09T12:18:34.961Z,27.17
2024-05-09T12:21:03.054Z,27.63
2024-05-09T12:23:33.622Z,28.15
2024-05-09T12:26:04.285Z,27.13
2024-05-09T12:28:34.583Z,27.32
2024-05-09T12:31:07.733Z,28.02
2024-05-09T12:33:42.348Z,26.63
2024-05-09T12:41:20.568Z,26.70
2024-05-09T13:37:14.283Z,26.32
2024-05-09T13:41:00.646Z,26.03
2024-05-09T14:15:32.084Z,24.95
2024-05-09T14:18:00.748Z,24.48
2024-05-09T14:20:31.762Z,24.67
2024-05-09T14:23:02.527Z,24.50
2024-05-09T14:25:36.589Z,24.80
2024-05-09T14:28:13.491Z,25.39
2024-05-09T14:31:01.321Z,25.81
2024-05-09T14:33:30.907Z,25.31
2024-05-09T14:36:08.177Z,25.65
2024-05-09T14:38:36.777Z,25.76
2024-05-09T14:41:05.378Z,25.85
2024-05-09T14:43:33.729Z,26.10
2024-05-09T14:46:20.251Z,26.09
2024-05-09T14:48:51.442Z,26.05
2024-05-09T14:51:20.715Z,26.24
2024-05-09T14:54:14.923Z,26.31
2024-05-09T14:56:49.176Z,26.63
2024-05-09T14:59:39.377Z,26.89
2024-05-09T15:02:23.436Z,26.35
2024-05-09T15:05:20.355Z,27.15
2024-05-09T15:08:33.455Z,26.70
2024-05-09T15:11:23.531Z,26.71
2024-05-09T15:17:13.441Z,26.69
2024-05-09T15:19:45.394Z,26.92
2024-05-09T15:22:33.865Z,27.02
2024-05-09T15:25:01.999Z,26.89
2024-05-09T15:27:42.430Z,27.16
2024-05-09T15:30:29.805Z,27.33
2024-05-09T15:33:27.985Z,27.97
2024-05-09T15:36:43.201Z,28.15
2024-05-09T15:39:12.497Z,28.04
2024-05-09T15:42:03.152Z,28.54
2024-05-09T15:44:31.356Z,28.40
2024-05-09T15:46:59.499Z,28.44
2024-05-09T15:49:36.418Z,28.58
2024-05-09T15:52:37.615Z,28.99
2024-05-09T15:55:06.653Z,29.41
2024-05-09T15:58:16.202Z,29.58
2024-05-09T16:00:46.311Z,29.59
2024-05-09T16:03:16.657Z,29.71
2024-05-09T16:05:47.124Z,29.82
2024-05-09T16:08:17.793Z,30.10
2024-05-09T16:10:55.753Z,30.35
2024-05-09T16:13:31.599Z,30.57
2024-05-09T16:16:32.974Z,30.69
2024-05-09T16:19:03.650Z,30.77
2024-05-09T16:21:48.434Z,30.58
2024-05-09T16:24:31.562Z,30.76
2024-05-09T16:27:03.269Z,30.68
2024-05-09T16:29:43.367Z,30.89
2024-05-09T16:32:19.820Z,30.97
2024-05-09T16:34:48.259Z,31.10
2024-05-09T16:37:17.083Z,31.79
2024-05-09T16:39:45.190Z,31.76
2024-05-09T16:42:17.500Z,31.78
2024-05-09T16:44:46.035Z,31.88
2024-05-09T16:47:14.164Z,31.91
2024-05-09T16:49:42.676Z,31.88
2024-05-09T16:52:10.979Z,31.84
2024-05-09T16:54:39.239Z,32.00
2024-05-09T16:57:07.509Z,32.19
2024-05-09T16:59:35.869Z,32.29
2024-05-09T17:02:04.435Z,32.17
2024-05-09T17:04:32.765Z,32.24
2024-05-09T17:07:01.151Z,32.33
2024-05-09T17:09:29.939Z,32.25
2024-05-09T17:11:58.735Z,32.23
2024-05-09T17:14:26.910Z,32.14
2024-05-09T17:16:54.917Z,32.02
2024-05-09T17:19:23.384Z,31.77
2024-05-09T17:21:53.460Z,31.44
2024-05-09T17:24:21.601Z,31.30
2024-05-09T17:26:49.724Z,31.22
2024-05-09T17:29:22.148Z,30.84
2024-05-09T17:31:50.353Z,30.54
2024-05-09T17:34:18.901Z,30.72
2024-05-09T17:36:47.232Z,31.12
2024-05-09T17:39:15.540Z,31.36
2024-05-09T17:41:44.169Z,31.29
2024-05-09T17:44:23.643Z,31.14
2024-05-09T17:46:52.105Z,30.96
2024-05-09T17:49:20.391Z,31.06
2024-05-09T17:51:52.830Z,31.37
2024-05-09T17:54:23.682Z,31.79
2024-05-09T17:56:51.748Z,31.92
2024-05-09T17:59:19.959Z,32.17
2024-05-09T18:01:48.622Z,32.58
2024-05-09T18:04:18.391Z,32.89
2024-05-09T18:06:48.999Z,33.13
2024-05-09T18:09:17.198Z,33.49
2024-05-09T18:11:47.720Z,33.90
2024-05-09T18:14:16.073Z,34.32
2024-05-09T18:16:44.267Z,34.47
2024-05-09T18:19:12.452Z,34.88
2024-05-09T18:21:42.896Z,35.14
2024-05-09T18:24:11.529Z,35.71
2024-05-09T18:26:40.066Z,36.06
2024-05-09T18:29:10.706Z,37.16
2024-05-09T18:31:38.847Z,37.87
2024-05-09T18:34:08.604Z,39.48
2024-05-09T18:36:39.583Z,40.52
2024-05-09T18:39:07.593Z,40.56
2024-05-09T18:41:35.707Z,41.09
2024-05-09T18:44:03.981Z,41.29
2024-05-09T18:46:32.155Z,41.79
2024-05-09T18:49:05.031Z,42.19
2024-05-09T18:51:33.247Z,42.63
2024-05-09T18:54:01.710Z,42.72
2024-05-09T18:56:32.249Z,42.51
2024-05-09T18:59:02.653Z,42.40
2024-05-09T19:01:33.398Z,41.82
2024-05-09T19:04:05.024Z,42.49
2024-05-09T19:06:36.615Z,42.97
2024-05-09T19:09:05.686Z,43.13
2024-05-09T19:11:35.545Z,43.51
2024-05-09T19:14:06.092Z,43.81
2024-05-09T19:16:35.027Z,44.07
2024-05-09T19:19:04.435Z,44.22
2024-05-09T19:21:32.586Z,44.32
2024-05-09T19:24:05.412Z,44.32
2024-05-09T19:26:33.396Z,44.39
2024-05-09T19:29:03.994Z,44.50
2024-05-09T19:31:34.266Z,44.65
2024-05-09T19:34:02.406Z,44.61
2024-05-09T19:36:31.690Z,44.83
2024-05-09T19:39:00.141Z,44.93
2024-05-09T19:41:31.583Z,44.93
2024-05-09T19:43:59.600Z,45.12
2024-05-09T19:46:27.870Z,45.66
2024-05-09T19:48:56.263Z,46.13
2024-05-09T19:51:24.531Z,46.37
2024-05-09T19:53:54.224Z,46.80
2024-05-09T19:56:22.578Z,47.26
2024-05-09T19:58:50.674Z,47.75
2024-05-09T20:01:18.866Z,48.20
2024-05-09T20:03:47.952Z,48.43
2024-05-09T20:06:16.162Z,49.07
2024-05-09T20:08:44.204Z,49.03
2024-05-09T20:11:12.331Z,49.28
2024-05-09T20:13:40.969Z,49.45
2024-05-09T20:16:11.803Z,50.37
2024-05-09T20:18:40.023Z,50.33
2024-05-09T20:21:08.431Z,50.49
2024-05-09T20:23:36.810Z,50.71
2024-05-09T20:26:05.574Z,51.05
2024-05-09T20:28:41.582Z,51.38
2024-05-09T20:31:20.302Z,51.36
2024-05-09T20:33:48.583Z,51.36
2024-05-09T20:36:18.880Z,51.49
2024-05-09T20:38:47.127Z,51.40
2024-05-09T20:41:25.280Z,51.62
2024-05-09T20:43:55.197Z,51.81
2024-05-09T20:46:23.766Z,52.21
2024-05-09T20:48:52.795Z,52.53
2024-05-09T20:51:27.167Z,52.36
2024-05-09T20:53:56.155Z,52.59
2024-05-09T20:56:24.672Z,52.86
2024-05-09T20:58:57.383Z,53.35
2024-05-09T21:01:25.431Z,53.74
2024-05-09T21:03:59.804Z,54.21
2024-05-09T21:06:27.969Z,54.23
2024-05-09T21:08:55.897Z,54.29
2024-05-09T21:11:25.185Z,54.52
2024-05-09T21:13:53.252Z,54.48
2024-05-09T21:16:23.708Z,54.48
2024-05-09T21:18:54.119Z,54.32
2024-05-09T21:21:24.298Z,54.56
2024-05-09T21:23:57.342Z,54.44
2024-05-09T21:26:27.591Z,54.57
2024-05-09T21:28:55.473Z,54.89
2024-05-09T21:31:23.509Z,54.95
2024-05-09T21:33:51.665Z,54.96
2024-05-09T21:36:19.850Z,55.24
2024-05-09T21:38:47.866Z,55.73
2024-05-09T21:41:15.892Z,55.98
2024-05-09T21:43:43.903Z,56.13
2024-05-09T21:46:11.880Z,56.30
2024-05-09T21:48:40.006Z,56.63
2024-05-09T21:51:14.858Z,56.83
2024-05-09T21:53:43.124Z,56.91
2024-05-09T21:56:11.099Z,56.64
2024-05-09T21:58:41.943Z,57.24
2024-05-09T22:01:12.474Z,57.50
2024-05-09T22:03:40.637Z,57.10
2024-05-09T22:06:11.151Z,57.50
2024-05-09T22:08:39.104Z,57.60
2024-05-09T22:11:09.352Z,57.56
2024-05-09T22:13:38.324Z,57.58
2024-05-09T22:16:09.704Z,57.50
2024-05-09T22:18:37.782Z,57.57
2024-05-09T22:21:05.914Z,57.50
2024-05-09T22:23:33.781Z,57.91
2024-05-09T22:26:03.996Z,57.97
2024-05-09T22:28:31.875Z,58.05
2024-05-09T22:30:59.854Z,58.11
2024-05-09T22:33:30.199Z,58.47
2024-05-09T22:35:58.255Z,58.29
2024-05-09T22:38:26.186Z,58.06
2024-05-09T22:40:54.182Z,58.35
2024-05-09T22:43:24.384Z,58.45
2024-05-09T22:45:56.802Z,58.34
2024-05-09T22:48:25.802Z,58.90
2024-05-09T22:50:54.622Z,59.26
2024-05-09T22:53:25.542Z,59.74
2024-05-09T22:55:54.097Z,59.76
2024-05-09T22:58:23.232Z,60.15
2024-05-09T23:00:54.095Z,60.12
2024-05-09T23:03:23.001Z,60.46
2024-05-09T23:05:52.963Z,60.50
2024-05-09T23:08:23.195Z,60.59
2024-05-09T23:10:54.180Z,60.66
2024-05-09T23:13:22.336Z,60.93
2024-05-09T23:15:50.598Z,60.89
2024-05-09T23:18:21.221Z,60.88
2024-05-09T23:20:49.228Z,61.03
2024-05-09T23:23:19.899Z,61.26
2024-05-09T23:25:49.404Z,61.27
2024-05-09T23:28:17.264Z,61.05
2024-05-09T23:30:50.508Z,61.35
2024-05-09T23:33:18.615Z,61.79
2024-05-09T23:35:46.556Z,61.85
2024-05-09T23:38:17.479Z,62.05
2024-05-09T23:40:46.391Z,62.24
2024-05-09T23:43:14.481Z,62.48
2024-05-09T23:45:43.229Z,62.42
2024-05-09T23:48:11.619Z,62.63
2024-05-09T23:50:42.203Z,62.98
2024-05-09T23:53:10.980Z,63.06
2024-05-09T23:55:44.153Z,63.17
2024-05-09T23:58:14.460Z,63.19
